aviador You're here:

PAHL Decoded Metar

HUSLIA in AK, USA
Report Time2017-12-18 02:56:00
UTC Time2017-12-18 03:27:35
Flight Rules vfr VFR
WindCalm
Visibility9999 m
Phenomena:Light Snow
Clouds:Scattered 048 Hf
Overcast 095 Hf
Expected CloudBase > 400 ft AGL from Temp-Dew spread
Ceiling9,500 ft
Temp-11°C (ISA -26)
Dew Point-12°C (92% RH)
AAT-14.2°C
QNH1007 hPa
Density Alt-2,749 ft
Elevation213 ft
Report Wrong Elevation
Raw Report
PAHL 180256Z AUTO 00000KT 9SM -SN SCT048 OVC095 M11/M12 A2974 RMK
AO2 SLP083 P0000 60000 T11061122 52024 FZRANO=

Extra information for PAHL:More info

Metar Taf Metar & Taf Last 4 Metars F.Rules Stats Wind Profile Meteogram Temp Stats Airport Information Weather charts Add Link Nearby VenuesMetar ALERT Operation Metar Decoded Social comments

AIRNAV info for PAHL